Latest Coastal Weather Observations for Double Island Point

IDQ60701

Issued at 6:55 pm EST Wednesday 30 July 2014 (issued every 10 minutes, with the page automatically refreshed every 10 minutes)

About coastal observations | Map of coastal stations | Coastal observations for QLD | Marine services | Other Formats
Station Details ID: 040068 Name: DOUBLE ISLAND POINT LIGHTHOUSE Lat: -25.93 Lon: 153.19 Height: 95.64 m
Data from the previous 72 hours. | See also: Recent months at Double Island Point
Date/Time
EST
Temp

°C
Wind Pressure Rain
since 9am
mm
Weather Cloud Vis
km
Sea
Height
m
Swell
Dir
 
Speed
knots
Gust
knots
hPa Trend Height
m
Period
s
Dir
30/06:30pm 19.2 N 7 9 1020.1 - 0.0 - - - - - - -
30/06:00pm 19.3 N 6 9 1019.8 - 0.0 - - - - - - -
30/05:30pm 19.7 N 6 9 1019.7 - 0.0 - - - - - - -
30/05:00pm 20.5 N 8 15 1019.4 - 0.0 - - - - - - -
30/04:30pm 21.1 N 9 15 1019.4 - 0.0 - - - - - - -
30/04:00pm 21.6 N 8 13 1018.9 - 0.0 - - - - - - -
30/03:30pm 22.2 N 8 14 1018.9 - 0.0 - - - - - - -
30/03:00pm 22.7 N 7 14 1018.8 - 0.0 - - - - - - -
30/02:30pm 23.1 N 8 14 1019.1 - 0.0 - - - - - - -
30/02:00pm 24.1 N 5 9 1019.4 - 0.0 - - - - - - -
30/01:30pm 24.3 N 5 6 1020.1 - 0.0 - - - - - - -
30/01:00pm 25.0 N 7 11 1020.4 - 0.0 - - - - - - -
30/12:30pm 23.4 NNW 12 15 1021.0 - 0.0 - - - - - - -
30/12:00pm 23.2 NNW 10 13 1021.6 - 0.0 - - - - - - -
30/11:30am 22.5 NNW 10 13 1022.2 - 0.0 - - - - - - -
30/11:00am 21.4 NW 11 15 1022.7 - 0.0 - - - - - - -
30/10:30am 19.6 WNW 13 16 1023.2 - 0.0 - - - - - - -
30/10:00am 18.9 WNW 13 17 1023.1 - 0.0 - - - - - - -
30/09:30am 18.5 NNW 11 15 1023.3 - 0.0 - - - - - - -
30/09:00am 17.7 NW 12 14 1023.2 - 0.0 - - - - - - -
30/08:30am 17.2 NW 11 14 1023.3 - 0.0 - - - - - - -
30/08:00am 16.5 NW 11 14 1023.2 - 0.0 - - - - - - -
30/07:30am 16.4 NW 11 13 1023.1 - 0.0 - - - - - - -
30/07:00am 16.1 NW 11 13 1022.8 - 0.0 - - - - - - -
30/06:30am 15.9 NW 11 13 1022.7 - 0.0 - - - - - - -
30/06:00am 16.0 WNW 11 13 1022.3 - 0.0 - - - - - - -
30/05:30am 16.2 NW 12 13 1022.0 - 0.0 - - - - - - -
30/05:00am 16.2 WNW 12 14 1021.6 - 0.0 - - - - - - -
30/04:30am 16.3 WNW 12 14 1021.5 - 0.0 - - - - - - -
30/04:00am 16.1 WNW 13 15 1021.3 - 0.0 - - - - - - -
30/03:30am 16.1 NW 12 14 1021.3 - 0.0 - - - - - - -
30/03:00am 16.3 NW 12 15 1021.3 - 0.0 - - - - - - -
30/02:30am 16.4 NW 13 15 1021.4 - 0.0 - - - - - - -
30/02:00am 16.6 NW 12 15 1021.3 - 0.0 - - - - - - -
30/01:30am 16.8 NW 11 13 1021.4 - 0.0 - - - - - - -
30/01:00am 17.0 NW 12 14 1021.5 - 0.0 - - - - - - -
30/12:30am 16.9 NW 13 15 1021.6 - 0.0 - - - - - - -
30/12:00am 16.8 NW 12 14 1021.5 - 0.0 - - - - - - -
 
Date/Time
EST
Temp

°C
Wind Pressure Rain
since 9am
mm
Weather Cloud Vis
km
Sea
Height
m
Swell
Dir
 
Speed
knots
Gust
knots
hPa Trend Height
m
Period
s
Dir
29/11:30pm 16.9 NW 12 14 1021.6 - 0.0 - - - - - - -
29/11:00pm 17.0 NW 11 14 1021.7 - 0.0 - - - - - - -
29/10:30pm 17.1 NW 9 11 1021.9 - 0.0 - - - - - - -
29/10:00pm 17.3 NW 8 10 1021.7 - 0.0 - - - - - - -
29/09:30pm 17.5 NNW 10 11 1021.6 - 0.0 - - - - - - -
29/09:00pm 17.6 NNW 11 15 1021.4 - 0.0 - - - - - - -
29/08:30pm 17.9 NNW 13 15 1021.3 - 0.0 - - - - - - -
29/08:00pm 17.9 NNW 15 17 1020.9 - 0.0 - - - - - - -
29/07:30pm 18.1 NNW 13 15 1020.8 - 0.0 - - - - - - -
29/07:00pm 19.2 N 8 13 1020.5 - 0.0 - - - - - - -
29/06:30pm 19.3 N 8 16 1020.4 - 0.0 - - - - - - -
29/06:00pm 19.4 N 10 18 1020.1 - 0.0 - - - - - - -
29/05:30pm 19.6 N 13 18 1020.0 - 0.0 - - - - - - -
29/05:00pm 20.2 N 15 19 1019.8 - 0.0 - - - - - - -
29/04:30pm 21.0 N 9 14 1019.7 - 0.0 - - - - - - -
29/04:00pm 21.4 N 11 17 1019.4 - 0.0 - - - - - - -
29/03:30pm 22.0 N 11 19 1019.4 - 0.0 - - - - - - -
29/03:00pm 22.3 N 14 17 1019.4 - 0.0 - - - - - - -
29/02:30pm 22.6 N 11 16 1019.6 - 0.0 - - - - - - -
29/02:00pm 23.2 N 8 13 1019.7 - 0.0 - - - - - - -
29/01:30pm 23.7 N 6 9 1020.4 - 0.0 - - - - - - -
29/01:00pm 24.5 N 6 9 1020.6 - 0.0 - - - - - - -
29/12:30pm 23.8 NNW 10 12 1021.1 - 0.0 - - - - - - -
29/12:00pm 22.0 NNW 14 18 1021.5 - 0.0 - - - - - - -
29/11:30am 21.1 NW 13 17 1022.3 - 0.0 - - - - - - -
29/11:00am 19.8 NW 14 18 1022.6 - 0.0 - - - - - - -
29/10:30am 19.1 NW 13 16 1022.9 - 0.0 - - - - - - -
29/10:00am 17.9 NW 14 16 1023.0 - 0.0 - - - - - - -
29/09:30am 17.6 NW 15 19 1023.2 - 0.0 - - - - - - -
29/09:00am 17.0 NW 15 18 1023.2 - 0.0 - - - - - - -
29/08:30am 16.9 NW 15 18 1023.2 - 0.0 - - - - - - -
29/08:00am 16.7 NW 14 17 1022.9 - 0.0 - - - - - - -
29/07:30am 16.4 NW 14 16 1022.8 - 0.0 - - - - - - -
29/07:00am 16.0 NW 15 17 1022.5 - 0.0 - - - - - - -
29/06:30am 15.8 NW 14 16 1022.2 - 0.0 - - - - - - -
29/06:00am 16.2 NW 14 15 1021.7 - 0.0 - - - - - - -
29/05:30am 16.3 WNW 11 13 1021.5 - 0.0 - - - - - - -
29/05:00am 16.3 WNW 11 13 1021.2 - 0.0 - - - - - - -
29/04:30am 16.5 WNW 13 16 1021.1 - 0.0 - - - - - - -
29/04:00am 16.7 WNW 13 15 1020.9 - 0.0 - - - - - - -
29/03:30am 16.8 WNW 13 15 1021.0 - 0.0 - - - - - - -
29/03:00am 16.9 WNW 13 15 1020.9 - 0.0 - - - - - - -
29/02:30am 17.0 WNW 11 13 1021.1 - 0.0 - - - - - - -
29/02:00am 17.0 WNW 12 13 1021.1 - 0.0 - - - - - - -
29/01:30am 17.0 W 10 12 1021.4 - 0.0 - - - - - - -
29/01:00am 17.0 WNW 11 12 1021.4 - 0.0 - - - - - - -
29/12:30am 17.4 WNW 9 10 1021.9 - 0.0 - - - - - - -
29/12:00am 17.5 WNW 9 10 1021.9 - 0.0 - - - - - - -
 
Date/Time
EST
Temp

°C
Wind Pressure Rain
since 9am
mm
Weather Cloud Vis
km
Sea
Height
m
Swell
Dir
 
Speed
knots
Gust
knots
hPa Trend Height
m
Period
s
Dir
28/11:30pm 17.6 NW 9 10 1022.1 - 0.0 - - - - - - -
28/11:00pm 17.8 N 4 8 1022.0 - 0.0 - - - - - - -
28/10:30pm 17.9 N 4 7 1022.2 - 0.0 - - - - - - -
28/10:00pm 18.1 N 6 9 1022.2 - 0.0 - - - - - - -
28/09:30pm 18.1 N 5 9 1022.2 - 0.0 - - - - - - -
28/09:00pm 18.1 N 7 12 1021.9 - 0.0 - - - - - - -
28/08:30pm 18.3 NNE 12 14 1021.8 - 0.0 - - - - - - -
28/08:00pm 18.2 NNE 11 14 1021.5 - 0.0 - - - - - - -
28/07:30pm 18.0 NNE 9 13 1021.6 - 0.0 - - - - - - -
28/07:00pm 18.0 NNE 7 11 1021.4 - 0.0 - - - - - - -
28/06:30pm 18.2 NE 7 11 1021.1 - 0.0 - - - - - - -
28/06:00pm 18.4 NE 7 10 1020.8 - 0.0 - - - - - - -
28/05:30pm 18.6 ENE 8 10 1020.8 - 0.0 - - - - - - -
28/05:00pm 19.4 NE 7 9 1020.7 - 0.0 - - - - - - -
28/04:30pm 19.9 NE 7 9 1020.6 - 0.0 - - - - - - -
28/04:00pm 20.5 NE 6 9 1020.4 - 0.0 - - - - - - -
28/03:30pm 20.1 NE 8 11 1020.5 - 0.0 - - - - - - -
28/03:00pm 21.5 NNE 5 9 1020.3 - 0.0 - - - - - - -
28/02:30pm 21.8 NE 6 9 1020.5 - 0.0 - - - - - - -
28/02:00pm 21.7 NNE 5 7 1020.8 - 0.0 - - - - - - -
28/01:30pm 23.4 NNE 6 9 1021.2 - 0.0 - - - - - - -
28/01:00pm 23.2 NNE 6 9 1021.5 - 0.0 - - - - - - -
28/12:30pm 23.3 N 5 7 1022.1 - 0.0 - - - - - - -
28/12:00pm 22.7 N 4 6 1022.6 - 0.0 - - - - - - -
28/11:30am 20.0 E 4 5 1023.2 - 0.0 - - - - - - -
28/11:00am 19.3 SE 6 8 1023.4 - 0.0 - - - - - - -
28/10:30am 19.1 SSE 6 9 1023.8 - 0.0 - - - - - - -
28/10:00am 18.5 S 7 9 1024.0 - 0.0 - - - - - - -
28/09:30am 17.8 S 7 9 1024.1 - 0.0 - - - - - - -
28/09:00am 17.6 S 8 9 1024.0 - 0.0 - - - - - - -
28/08:30am 17.1 S 9 11 1023.9 - 0.0 - - - - - - -
28/08:00am 16.8 S 11 13 1023.7 - 0.0 - - - - - - -
28/07:30am 16.1 S 12 13 1023.6 - 0.0 - - - - - - -
28/07:00am 15.6 S 13 14 1023.2 - 0.0 - - - - - - -
28/06:30am 15.5 S 13 14 1023.0 - 0.0 - - - - - - -
28/06:00am 15.6 S 12 14 1022.7 - 0.0 - - - - - - -
28/05:30am 15.8 S 13 14 1022.4 - 0.0 - - - - - - -
28/05:00am 15.7 S 13 14 1022.0 - 0.0 - - - - - - -
28/04:30am 15.8 S 11 12 1022.0 - 0.0 - - - - - - -
28/04:00am 15.8 S 10 12 1021.8 - 0.0 - - - - - - -
28/03:30am 15.8 S 10 11 1021.9 - 0.0 - - - - - - -
28/03:00am 15.9 S 10 11 1021.9 - 0.0 - - - - - - -
28/02:30am 16.0 S 10 11 1022.0 - 0.0 - - - - - - -
28/02:00am 16.4 S 9 11 1022.1 - 0.0 - - - - - - -
28/01:30am 17.2 SSE 8 10 1022.6 - 0.0 - - - - - - -
28/01:00am 17.7 ESE 7 9 1022.8 - 0.0 - - - - - - -
28/12:30am 17.8 ESE 9 10 1022.8 - 0.0 - - - - - - -
28/12:00am 17.8 ESE 9 11 1022.6 - 0.0 - - - - - - -
 
Date/Time
EST
Temp

°C
Wind Pressure Rain
since 9am
mm
Weather Cloud Vis
km
Sea
Height
m
Swell
Dir
 
Speed
knots
Gust
knots
hPa Trend Height
m
Period
s
Dir
27/11:30pm 17.9 ESE 11 14 1022.8 - 0.0 - - - - - - -
27/11:00pm 17.9 E 12 13 1023.0 - 0.0 - - - - - - -
27/10:30pm 18.1 ESE 13 15 1023.2 - 0.0 - - - - - - -
27/10:00pm 18.4 ESE 13 16 1023.0 - 0.0 - - - - - - -
27/09:30pm 18.4 ESE 15 18 1022.9 - 0.0 - - - - - - -
27/09:00pm 18.4 ESE 17 19 1022.7 - 0.0 - - - - - - -
27/08:30pm 18.5 ESE 18 21 1022.8 - 0.0 - - - - - - -
27/08:00pm 18.5 ESE 18 21 1022.4 - 0.0 - - - - - - -
27/07:30pm 18.6 ESE 18 21 1022.4 - 0.0 - - - - - - -
27/07:00pm 18.7 ESE 18 21 1022.2 - 0.0 - - - - - - -

Other Formats:

Comma delimited format used in spreadsheet applications
http://www.bom.gov.au/fwo/IDQ60701/IDQ60701.94584.axf

JavaScript Object Notation format (JSON) in row-major order
http://www.bom.gov.au/fwo/IDQ60701/IDQ60701.94584.json